ZBTJ/TSN METAR and TAF weather

Enter ICAO airport designator
Station Type Date Time Source
ZBTJ METAR 2021/09/25 11:30 UTC NOAA

ZBTJ 251130Z 06002MPS CAVOK 21/19 Q1020 NOSIG


Station Type Date Time Source
ZBTJ Decoded METAR 2021/09/25 11:30 UTC NOAA

Tianjin / Zhangguizhu, China (ZBTJ) 39-11N 117-21E
Sep 25, 2021 - 07:30 AM EDT / 2021.09.25 1130 UTC
Wind: from the ENE (060 degrees) at 4 MPH (4 KT):0
Visibility: greater than 7 mile(s):0
Temperature: 69 F (21 C)
Dew Point: 66 F (19 C)
Relative Humidity: 88%
Pressure (altimeter): 30.12 in. Hg (1020 hPa)
ob: ZBTJ 251130Z 06002MPS CAVOK 21/19 Q1020 NOSIG
cycle: 11

Station Type Date Time Source
ZBTJ TAF 2021/09/25 12:03 UTC NOAA

TAF ZBTJ 250905Z 2512/2612 12003MPS 5000 BR BKN030 TX24/2606Z TN19/2521Z

Example: see airport list